Time;durP1;ratioP1;P1;durP2;ratioP2;P2;SDS_P1;SDS_P2;PMS_P1;PMS_P2;Temp;Humidity;BMP_temperature;BMP_pressure;BME280_temperature;BME280_humidity;BME280_pressure;Samples;Min_cycle;Max_cycle;Signal;HPM_P1;HPM_P2
2023/07/06 00:02:22;;;;;;;;;;;;;;;;;;4991054;28;19968;-91
2023/07/06 00:04:48;;;;;;;;;;;;;;;;;;4991132;28;19926;-88
2023/07/06 00:07:20;;;;;;;;;;;;;;;;;;5006620;28;20376;-90
2023/07/06 00:09:46;;;;;;;;;;;;;;;;;;4990909;28;19925;-92
2023/07/06 00:12:13;;;;;;;;;;;;;;;;;;4990926;28;19972;-91
2023/07/06 00:14:39;;;;;;;;;;;;;;;;;;4989429;28;20008;-89
2023/07/06 00:17:06;;;;;;;;;;;;;;;;;;5005565;28;19960;-90
2023/07/06 00:19:32;;;;;;;;;;;;;;;;;;4990377;28;19929;-90
2023/07/06 00:21:58;;;;;;;;;;;;;;;;;;4988888;28;19922;-90
2023/07/06 00:24:26;;;;;;;;;;;;;;;;;;4990078;28;20014;-89
2023/07/06 00:26:52;;;;;;;;;;;;;;;;;;5007153;28;19944;-90
2023/07/06 00:29:18;;;;;;;;;;;;;;;;;;5007948;28;19928;-90
2023/07/06 00:32:04;;;;;;;;;;;;;;;;;;4989938;28;19922;-91
2023/07/06 00:34:34;;;;;;;;;;;;;;;;;;5007228;28;19960;-89
2023/07/06 00:37:02;;;;;;;;;;;;;;;;;;4989020;28;20380;-90
2023/07/06 00:39:28;;;;;;;;;;;;;;;;;;4989673;28;19928;-90
2023/07/06 00:41:54;;;;;;;;;;;;;;;;;;5006174;28;19921;-91
2023/07/06 00:44:21;;;;;;;;;;;;;;;;;;4990039;28;19937;-90
2023/07/06 00:46:48;;;;;;;;;;;;;;;;;;4991959;28;19922;-90
2023/07/06 00:49:17;;;;;;;;;;;;;;;;;;4990342;28;19928;-92
2023/07/06 00:51:44;;;;;;;;;;;;;;;;;;5024413;28;20320;-89
2023/07/06 00:54:10;;;;;;;;;;;;;;;;;;4985921;28;19926;-91
2023/07/06 00:56:37;;;;;;;;;;;;;;;;;;4968222;28;19922;-90
2023/07/06 00:59:05;;;;;;;;;;;;;;;;;;4989000;28;19917;-91
2023/07/06 01:01:32;;;;;;;;;;;;;;;;;;4988839;28;19921;-91
2023/07/06 01:03:58;;;;;;;;;;;;;;;;;;4987873;28;19922;-89
2023/07/06 01:06:24;;;;;;;;;;;;;;;;;;4987527;28;19944;-90
2023/07/06 01:08:49;;;;;;;;;;;;;;;;;;4987455;28;19925;-91
2023/07/06 01:11:15;;;;;;;;;;;;;;;;;;5005022;28;19965;-91
2023/07/06 01:13:41;;;;;;;;;;;;;;;;;;4988433;28;20043;-91
2023/07/06 01:16:07;;;;;;;;;;;;;;;;;;4987820;28;20136;-92
2023/07/06 01:18:33;;;;;;;;;;;;;;;;;;4987800;28;19922;-91
2023/07/06 01:21:02;;;;;;;;;;;;;;;;;;4986598;28;19921;-89
2023/07/06 01:23:27;;;;;;;;;;;;;;;;;;4986595;28;19952;-91
2023/07/06 01:25:53;;;;;;;;;;;;;;;;;;4987459;28;19925;-92
2023/07/06 01:28:19;;;;;;;;;;;;;;;;;;4986871;28;20015;-90
2023/07/06 01:30:45;;;;;;;;;;;;;;;;;;4987314;28;19929;-90
2023/07/06 01:33:11;;;;;;;;;;;;;;;;;;4986803;28;19928;-90
2023/07/06 01:35:37;;;;;;;;;;;;;;;;;;4987407;28;20380;-90
2023/07/06 01:38:03;;;;;;;;;;;;;;;;;;5003457;28;19922;-90
2023/07/06 01:40:29;;;;;;;;;;;;;;;;;;4986418;28;19985;-91
2023/07/06 01:42:55;;;;;;;;;;;;;;;;;;4987367;28;19921;-89
2023/07/06 01:45:21;;;;;;;;;;;;;;;;;;5003784;28;19988;-88
2023/07/06 01:47:47;;;;;;;;;;;;;;;;;;4987248;28;20004;-91
2023/07/06 01:50:13;;;;;;;;;;;;;;;;;;4987728;28;19929;-91
2023/07/06 01:52:39;;;;;;;;;;;;;;;;;;4987428;28;19968;-91
2023/07/06 01:55:09;;;;;;;;;;;;;;;;;;4987667;28;19922;-91
2023/07/06 01:57:35;;;;;;;;;;;;;;;;;;4987898;28;19965;-92
2023/07/06 02:00:01;;;;;;;;;;;;;;;;;;4986198;28;19921;-91
2023/07/06 02:02:27;;;;;;;;;;;;;;;;;;4986213;28;19977;-90
2023/07/06 02:04:55;;;;;;;;;;;;;;;;;;4987468;28;19925;-91
2023/07/06 02:07:21;;;;;;;;;;;;;;;;;;4988491;28;19922;-90
2023/07/06 02:09:47;;;;;;;;;;;;;;;;;;4994437;28;20066;-91
2023/07/06 02:12:13;;;;;;;;;;;;;;;;;;4994911;28;19921;-89
2023/07/06 02:14:40;;;;;;;;;;;;;;;;;;4994622;28;19921;-91
2023/07/06 02:17:13;;;;;;;;;;;;;;;;;;5009543;28;19968;-89
2023/07/06 02:19:39;;;;;;;;;;;;;;;;;;5008746;28;19928;-90
2023/07/06 02:22:05;;;;;;;;;;;;;;;;;;4993116;28;19985;-90
2023/07/06 02:24:31;;;;;;;;;;;;;;;;;;4993595;28;19925;-88
2023/07/06 02:26:57;;;;;;;;;;;;;;;;;;4992428;28;19929;-90
2023/07/06 02:29:23;;;;;;;;;;;;;;;;;;4993266;28;19961;-91
2023/07/06 02:31:50;;;;;;;;;;;;;;;;;;4993499;28;19929;-90
2023/07/06 02:34:24;;;;;;;;;;;;;;;;;;4993149;28;19921;-91
2023/07/06 02:36:50;;;;;;;;;;;;;;;;;;4993783;28;19925;-92
2023/07/06 02:39:20;;;;;;;;;;;;;;;;;;4992819;28;19972;-91
2023/07/06 02:41:46;;;;;;;;;;;;;;;;;;4991893;28;20016;-90
2023/07/06 02:44:13;;;;;;;;;;;;;;;;;;4992210;28;19930;-91
2023/07/06 02:46:39;;;;;;;;;;;;;;;;;;4992117;28;20284;-91
2023/07/06 02:49:05;;;;;;;;;;;;;;;;;;4992861;28;19921;-90
2023/07/06 02:51:32;;;;;;;;;;;;;;;;;;5026567;28;19921;-90
2023/07/06 02:53:58;;;;;;;;;;;;;;;;;;4994128;28;19922;-90
2023/07/06 02:56:26;;;;;;;;;;;;;;;;;;5010043;28;20435;-90
2023/07/06 02:58:52;;;;;;;;;;;;;;;;;;5010717;28;20364;-92
2023/07/06 03:01:18;;;;;;;;;;;;;;;;;;4992116;28;19921;-91
2023/07/06 03:03:44;;;;;;;;;;;;;;;;;;4992215;28;19929;-91
2023/07/06 03:06:12;;;;;;;;;;;;;;;;;;4992557;28;19929;-91
2023/07/06 03:08:38;;;;;;;;;;;;;;;;;;5008591;28;20016;-90
2023/07/06 03:11:04;;;;;;;;;;;;;;;;;;4992372;28;19965;-89
2023/07/06 03:13:31;;;;;;;;;;;;;;;;;;4993441;28;20281;-89
2023/07/06 03:15:57;;;;;;;;;;;;;;;;;;4993939;28;19945;-90
2023/07/06 03:18:22;;;;;;;;;;;;;;;;;;4993804;28;19921;-92
2023/07/06 03:20:48;;;;;;;;;;;;;;;;;;4989474;28;19956;-90
2023/07/06 03:23:15;;;;;;;;;;;;;;;;;;4989388;28;19921;-90
2023/07/06 03:25:41;;;;;;;;;;;;;;;;;;4990879;28;19936;-90
2023/07/06 03:28:07;;;;;;;;;;;;;;;;;;4989819;28;20339;-91
2023/07/06 03:30:33;;;;;;;;;;;;;;;;;;4989953;28;19922;-91
2023/07/06 03:32:59;;;;;;;;;;;;;;;;;;4989582;28;20396;-91
2023/07/06 03:35:25;;;;;;;;;;;;;;;;;;4990021;28;20277;-91
2023/07/06 03:37:50;;;;;;;;;;;;;;;;;;4991194;28;19993;-91
2023/07/06 03:40:16;;;;;;;;;;;;;;;;;;4989416;28;19921;-91
2023/07/06 03:42:45;;;;;;;;;;;;;;;;;;4990894;28;19921;-91
2023/07/06 03:45:11;;;;;;;;;;;;;;;;;;4990576;28;20384;-91
2023/07/06 03:47:37;;;;;;;;;;;;;;;;;;4990959;28;19928;-88
2023/07/06 03:50:03;;;;;;;;;;;;;;;;;;4990483;28;19964;-91
2023/07/06 03:52:29;;;;;;;;;;;;;;;;;;4991785;28;19921;-91
2023/07/06 03:54:59;;;;;;;;;;;;;;;;;;4991020;28;19921;-91
2023/07/06 03:57:25;;;;;;;;;;;;;;;;;;4990511;28;19921;-91
2023/07/06 03:59:51;;;;;;;;;;;;;;;;;;5005679;28;19929;-92
2023/07/06 04:02:19;;;;;;;;;;;;;;;;;;4988459;28;19922;-92
2023/07/06 04:04:45;;;;;;;;;;;;;;;;;;4989742;28;19992;-90
2023/07/06 04:07:11;;;;;;;;;;;;;;;;;;4981974;28;20356;-91
2023/07/06 04:09:38;;;;;;;;;;;;;;;;;;4970065;28;19953;-92
2023/07/06 04:12:04;;;;;;;;;;;;;;;;;;4987298;28;19926;-90
2023/07/06 04:14:30;;;;;;;;;;;;;;;;;;4988892;28;19936;-89
2023/07/06 04:16:56;;;;;;;;;;;;;;;;;;4989792;28;19921;-91
2023/07/06 04:19:22;;;;;;;;;;;;;;;;;;4991235;28;20369;-89
2023/07/06 04:21:53;;;;;;;;;;;;;;;;;;4990501;28;19968;-91
2023/07/06 04:24:19;;;;;;;;;;;;;;;;;;4990726;28;19925;-91
2023/07/06 04:26:46;;;;;;;;;;;;;;;;;;4989998;28;19952;-91
2023/07/06 04:29:12;;;;;;;;;;;;;;;;;;4990304;28;20383;-90
2023/07/06 04:31:38;;;;;;;;;;;;;;;;;;4985337;28;20055;-86
2023/07/06 04:34:06;;;;;;;;;;;;;;;;;;5003955;28;19956;-89
2023/07/06 04:36:39;;;;;;;;;;;;;;;;;;4991938;28;19929;-91
2023/07/06 04:39:08;;;;;;;;;;;;;;;;;;4976536;28;19936;-90
2023/07/06 04:41:34;;;;;;;;;;;;;;;;;;4978193;28;19922;-91
2023/07/06 04:44:00;;;;;;;;;;;;;;;;;;4979011;28;19926;-90
2023/07/06 04:46:27;;;;;;;;;;;;;;;;;;4984589;28;20296;-88
2023/07/06 04:48:53;;;;;;;;;;;;;;;;;;4986967;28;19972;-89
2023/07/06 04:51:19;;;;;;;;;;;;;;;;;;4986895;28;19953;-89
2023/07/06 04:53:45;;;;;;;;;;;;;;;;;;4985713;28;19921;-89
2023/07/06 04:56:13;;;;;;;;;;;;;;;;;;4986739;28;19928;-91
2023/07/06 04:58:41;;;;;;;;;;;;;;;;;;4986426;28;19989;-90
2023/07/06 05:01:07;;;;;;;;;;;;;;;;;;4983104;28;19922;-90
2023/07/06 05:03:33;;;;;;;;;;;;;;;;;;4985877;28;19929;-90
2023/07/06 05:05:59;;;;;;;;;;;;;;;;;;5001966;28;19929;-90
2023/07/06 05:08:27;;;;;;;;;;;;;;;;;;4985953;28;19921;-90
2023/07/06 05:10:53;;;;;;;;;;;;;;;;;;4985740;28;19953;-91
2023/07/06 05:13:20;;;;;;;;;;;;;;;;;;5002381;28;19952;-91
2023/07/06 05:15:46;;;;;;;;;;;;;;;;;;5001596;28;20399;-89
2023/07/06 05:18:12;;;;;;;;;;;;;;;;;;4983127;28;19944;-89
2023/07/06 05:20:38;;;;;;;;;;;;;;;;;;4982421;28;19972;-89
2023/07/06 05:23:05;;;;;;;;;;;;;;;;;;4981822;28;19928;-89
2023/07/06 05:25:34;;;;;;;;;;;;;;;;;;5009270;28;19948;-91
2023/07/06 05:28:00;;;;;;;;;;;;;;;;;;4986155;28;19930;-89
2023/07/06 05:30:26;;;;;;;;;;;;;;;;;;4984890;28;19925;-89
2023/07/06 05:32:52;;;;;;;;;;;;;;;;;;4992450;28;19975;-88
2023/07/06 05:35:18;;;;;;;;;;;;;;;;;;4985531;28;19921;-90
2023/07/06 05:37:44;;;;;;;;;;;;;;;;;;4986664;28;20064;-88
2023/07/06 05:42:40;;;;;;;;;;;;;;;;;;5001605;28;19929;-90
2023/07/06 05:45:08;;;;;;;;;;;;;;;;;;4987783;28;19930;-88
2023/07/06 05:47:34;;;;;;;;;;;;;;;;;;4985994;28;19921;-90
2023/07/06 05:50:00;;;;;;;;;;;;;;;;;;4986132;28;19926;-90
2023/07/06 05:52:27;;;;;;;;;;;;;;;;;;4989080;28;19925;-90
2023/07/06 05:54:53;;;;;;;;;;;;;;;;;;4985972;28;20283;-89
2023/07/06 05:57:19;;;;;;;;;;;;;;;;;;4985849;28;20045;-87
2023/07/06 05:59:46;;;;;;;;;;;;;;;;;;4984967;28;20008;-90
2023/07/06 06:02:12;;;;;;;;;;;;;;;;;;5001554;28;19922;-90
2023/07/06 06:04:38;;;;;;;;;;;;;;;;;;4985050;28;20008;-89
2023/07/06 06:07:06;;;;;;;;;;;;;;;;;;4986280;28;19996;-90
2023/07/06 06:09:32;;;;;;;;;;;;;;;;;;4986155;28;20532;-91
2023/07/06 06:11:58;;;;;;;;;;;;;;;;;;4986183;28;19928;-89
2023/07/06 06:14:24;;;;;;;;;;;;;;;;;;4985287;28;19921;-91
2023/07/06 06:16:50;;;;;;;;;;;;;;;;;;5002383;28;19932;-90
2023/07/06 06:19:16;;;;;;;;;;;;;;;;;;4985060;28;20056;-88
2023/07/06 06:21:42;;;;;;;;;;;;;;;;;;4985518;28;19922;-91
2023/07/06 06:24:08;;;;;;;;;;;;;;;;;;4984453;28;19921;-89
2023/07/06 06:26:34;;;;;;;;;;;;;;;;;;4985939;28;20008;-90
2023/07/06 06:29:00;;;;;;;;;;;;;;;;;;4985838;28;19926;-89
2023/07/06 06:31:27;;;;;;;;;;;;;;;;;;4985683;28;19921;-91
2023/07/06 06:33:53;;;;;;;;;;;;;;;;;;4985347;28;19921;-90
2023/07/06 06:36:19;;;;;;;;;;;;;;;;;;4984601;28;19929;-87
2023/07/06 06:38:45;;;;;;;;;;;;;;;;;;4984855;28;20384;-90
2023/07/06 06:41:11;;;;;;;;;;;;;;;;;;4985239;28;19925;-92
2023/07/06 06:43:38;;;;;;;;;;;;;;;;;;4984507;28;19952;-90
2023/07/06 06:46:04;;;;;;;;;;;;;;;;;;4985534;28;19925;-90
2023/07/06 06:48:30;;;;;;;;;;;;;;;;;;4984435;28;19925;-90
2023/07/06 06:50:56;;;;;;;;;;;;;;;;;;4985499;28;19985;-90
2023/07/06 06:53:22;;;;;;;;;;;;;;;;;;4984878;28;20284;-90
2023/07/06 06:55:48;;;;;;;;;;;;;;;;;;4988947;28;19928;-89
2023/07/06 06:58:15;;;;;;;;;;;;;;;;;;4990095;28;19922;-90
2023/07/06 07:00:41;;;;;;;;;;;;;;;;;;4988933;28;19925;-91
2023/07/06 07:03:11;;;;;;;;;;;;;;;;;;4988416;28;20381;-89
2023/07/06 07:05:37;;;;;;;;;;;;;;;;;;5004462;28;19968;-89
2023/07/06 07:08:03;;;;;;;;;;;;;;;;;;4988125;28;19929;-89
2023/07/06 07:10:29;;;;;;;;;;;;;;;;;;5005546;28;19968;-91
2023/07/06 07:12:55;;;;;;;;;;;;;;;;;;5003743;28;19980;-89
2023/07/06 07:15:21;;;;;;;;;;;;;;;;;;4986399;28;19953;-87
2023/07/06 07:17:47;;;;;;;;;;;;;;;;;;4986330;28;19921;-87
2023/07/06 07:20:13;;;;;;;;;;;;;;;;;;4985701;28;19944;-89
2023/07/06 07:22:39;;;;;;;;;;;;;;;;;;5002416;28;19929;-89
2023/07/06 07:25:05;;;;;;;;;;;;;;;;;;4986099;28;19929;-89
2023/07/06 07:27:34;;;;;;;;;;;;;;;;;;4986920;28;19921;-87
2023/07/06 07:30:00;;;;;;;;;;;;;;;;;;5002386;28;19995;-89
2023/07/06 07:32:29;;;;;;;;;;;;;;;;;;4987004;28;19921;-89
2023/07/06 07:34:56;;;;;;;;;;;;;;;;;;5002706;28;20012;-89
2023/07/06 07:37:22;;;;;;;;;;;;;;;;;;4986554;28;19922;-88
2023/07/06 07:39:48;;;;;;;;;;;;;;;;;;4985860;28;19925;-87
2023/07/06 07:42:14;;;;;;;;;;;;;;;;;;4984681;28;19921;-89
2023/07/06 07:44:40;;;;;;;;;;;;;;;;;;5001661;28;19933;-88
2023/07/06 07:47:06;;;;;;;;;;;;;;;;;;4985742;28;19921;-89
2023/07/06 07:49:32;;;;;;;;;;;;;;;;;;4985862;28;20277;-87
2023/07/06 07:51:58;;;;;;;;;;;;;;;;;;4985579;28;20008;-89
2023/07/06 07:54:24;;;;;;;;;;;;;;;;;;4985410;28;19922;-89
2023/07/06 07:56:54;;;;;;;;;;;;;;;;;;4986076;28;19928;-86
2023/07/06 07:59:19;;;;;;;;;;;;;;;;;;5002443;28;19921;-87
2023/07/06 08:01:46;;;;;;;;;;;;;;;;;;4984737;28;20303;-89
2023/07/06 08:04:14;;;;;;;;;;;;;;;;;;4985146;28;20277;-86
2023/07/06 08:06:40;;;;;;;;;;;;;;;;;;4983372;28;19968;-89
2023/07/06 08:09:07;;;;;;;;;;;;;;;;;;4983459;28;19922;-87
2023/07/06 08:11:33;;;;;;;;;;;;;;;;;;4983686;28;19922;-88
2023/07/06 08:13:59;;;;;;;;;;;;;;;;;;4983573;28;20338;-88
2023/07/06 08:16:25;;;;;;;;;;;;;;;;;;4983171;28;20338;-86
2023/07/06 08:18:51;;;;;;;;;;;;;;;;;;4999638;28;19925;-87
2023/07/06 08:21:17;;;;;;;;;;;;;;;;;;4982734;28;19975;-88
2023/07/06 08:23:43;;;;;;;;;;;;;;;;;;4983021;28;20023;-88
2023/07/06 08:26:10;;;;;;;;;;;;;;;;;;4983542;28;20447;-87
2023/07/06 08:28:36;;;;;;;;;;;;;;;;;;4983296;28;19922;-89
2023/07/06 08:33:35;;;;;;;;;;;;;;;;;;4999568;28;19921;-87
2023/07/06 08:36:03;;;;;;;;;;;;;;;;;;4983437;28;19922;-88
2023/07/06 08:38:31;;;;;;;;;;;;;;;;;;4983412;28;19932;-88
2023/07/06 08:40:57;;;;;;;;;;;;;;;;;;4999087;28;19980;-87
2023/07/06 08:43:23;;;;;;;;;;;;;;;;;;4983305;28;19925;-87
2023/07/06 08:45:49;;;;;;;;;;;;;;;;;;4983099;28;19929;-88
2023/07/06 08:48:15;;;;;;;;;;;;;;;;;;4999858;28;19925;-87
2023/07/06 08:50:42;;;;;;;;;;;;;;;;;;4982278;28;19972;-87
2023/07/06 08:53:10;;;;;;;;;;;;;;;;;;4982809;28;19925;-88
2023/07/06 08:55:37;;;;;;;;;;;;;;;;;;4982715;28;20024;-87
2023/07/06 08:58:03;;;;;;;;;;;;;;;;;;4984356;28;19922;-88
2023/07/06 09:00:31;;;;;;;;;;;;;;;;;;4984992;28;19975;-87
2023/07/06 09:02:57;;;;;;;;;;;;;;;;;;4984323;28;19961;-88
2023/07/06 09:05:24;;;;;;;;;;;;;;;;;;4983985;28;19976;-89
2023/07/06 09:07:50;;;;;;;;;;;;;;;;;;4983582;28;20347;-90
2023/07/06 09:10:17;;;;;;;;;;;;;;;;;;4983727;28;20373;-89
2023/07/06 09:12:43;;;;;;;;;;;;;;;;;;4984188;28;19922;-90
2023/07/06 09:15:09;;;;;;;;;;;;;;;;;;4983826;28;20273;-88
2023/07/06 09:17:35;;;;;;;;;;;;;;;;;;4999437;28;19967;-90
2023/07/06 09:20:03;;;;;;;;;;;;;;;;;;4999300;28;20389;-87
2023/07/06 09:22:29;;;;;;;;;;;;;;;;;;4982681;28;19921;-86
2023/07/06 09:24:55;;;;;;;;;;;;;;;;;;4999821;28;20390;-87
2023/07/06 09:27:21;;;;;;;;;;;;;;;;;;4983731;28;19929;-89
2023/07/06 09:29:47;;;;;;;;;;;;;;;;;;4982867;28;19944;-88
2023/07/06 09:32:13;;;;;;;;;;;;;;;;;;4983794;28;19921;-90
2023/07/06 09:34:44;;;;;;;;;;;;;;;;;;4984157;28;20016;-88
2023/07/06 09:37:11;;;;;;;;;;;;;;;;;;4984298;28;19973;-89
2023/07/06 09:39:37;;;;;;;;;;;;;;;;;;4984429;28;19956;-88
2023/07/06 09:42:03;;;;;;;;;;;;;;;;;;4984721;28;19921;-88
2023/07/06 09:44:29;;;;;;;;;;;;;;;;;;4982272;28;19975;-89
2023/07/06 09:46:55;;;;;;;;;;;;;;;;;;4982754;28;20018;-88
2023/07/06 09:49:21;;;;;;;;;;;;;;;;;;4998600;28;19928;-88
2023/07/06 09:51:50;;;;;;;;;;;;;;;;;;4982197;28;20300;-90
2023/07/06 09:54:17;;;;;;;;;;;;;;;;;;4998316;28;19921;-89
2023/07/06 09:56:43;;;;;;;;;;;;;;;;;;4983496;28;20013;-87
2023/07/06 09:59:09;;;;;;;;;;;;;;;;;;4965104;28;20393;-88
2023/07/06 10:01:35;;;;;;;;;;;;;;;;;;4964254;28;19922;-90
2023/07/06 10:04:00;;;;;;;;;;;;;;;;;;4963349;28;19926;-86
2023/07/06 10:06:26;;;;;;;;;;;;;;;;;;4962825;28;19930;-91
2023/07/06 10:08:52;;;;;;;;;;;;;;;;;;4964628;28;20013;-89
2023/07/06 10:11:20;;;;;;;;;;;;;;;;;;4979688;28;20734;-86
2023/07/06 10:13:47;;;;;;;;;;;;;;;;;;4962086;28;19929;-87
2023/07/06 10:16:14;;;;;;;;;;;;;;;;;;4963238;28;19928;-88
2023/07/06 10:18:40;;;;;;;;;;;;;;;;;;4978591;28;19949;-87
2023/07/06 10:21:06;;;;;;;;;;;;;;;;;;4962254;28;19929;-88
2023/07/06 10:23:32;;;;;;;;;;;;;;;;;;4978831;28;20292;-88
2023/07/06 10:25:58;;;;;;;;;;;;;;;;;;4978068;28;20407;-87
2023/07/06 10:28:24;;;;;;;;;;;;;;;;;;4979854;28;19977;-86
2023/07/06 10:30:50;;;;;;;;;;;;;;;;;;4966274;28;19932;-85
2023/07/06 10:33:19;;;;;;;;;;;;;;;;;;4983479;28;20016;-88
2023/07/06 10:35:46;;;;;;;;;;;;;;;;;;4982819;28;20059;-88
2023/07/06 10:38:12;;;;;;;;;;;;;;;;;;5008086;28;19921;-86
2023/07/06 10:40:38;;;;;;;;;;;;;;;;;;4985275;28;20329;-88
2023/07/06 10:43:05;;;;;;;;;;;;;;;;;;4985121;28;19921;-87
2023/07/06 10:45:32;;;;;;;;;;;;;;;;;;4984891;28;19932;-86
2023/07/06 10:47:57;;;;;;;;;;;;;;;;;;4984582;28;19922;-85
2023/07/06 10:50:25;;;;;;;;;;;;;;;;;;4984380;28;19944;-87
2023/07/06 10:52:51;;;;;;;;;;;;;;;;;;4985571;28;19925;-88
2023/07/06 10:55:18;;;;;;;;;;;;;;;;;;4985994;28;20368;-88
2023/07/06 10:57:44;;;;;;;;;;;;;;;;;;4986387;28;19980;-88
2023/07/06 11:00:10;;;;;;;;;;;;;;;;;;4985609;28;19921;-87
2023/07/06 11:02:38;;;;;;;;;;;;;;;;;;4985993;28;19921;-85
2023/07/06 11:05:04;;;;;;;;;;;;;;;;;;4984174;28;19926;-86
2023/07/06 11:07:30;;;;;;;;;;;;;;;;;;4984925;28;19921;-88
2023/07/06 11:09:56;;;;;;;;;;;;;;;;;;5001236;28;20020;-89
2023/07/06 11:12:23;;;;;;;;;;;;;;;;;;5001479;28;19996;-86
2023/07/06 11:14:50;;;;;;;;;;;;;;;;;;5001279;28;19929;-88
2023/07/06 11:17:16;;;;;;;;;;;;;;;;;;4977548;28;19925;-87
2023/07/06 11:19:42;;;;;;;;;;;;;;;;;;5001449;28;20269;-86
2023/07/06 11:22:09;;;;;;;;;;;;;;;;;;4986128;28;19922;-88
2023/07/06 11:24:35;;;;;;;;;;;;;;;;;;4984843;28;19973;-87
2023/07/06 11:27:01;;;;;;;;;;;;;;;;;;4985098;28;19926;-86
2023/07/06 11:29:30;;;;;;;;;;;;;;;;;;4985433;28;19973;-88
2023/07/06 11:31:58;;;;;;;;;;;;;;;;;;4985158;28;20376;-87
2023/07/06 11:34:25;;;;;;;;;;;;;;;;;;4988472;28;19928;-86
2023/07/06 11:36:55;;;;;;;;;;;;;;;;;;4964665;28;19968;-87
2023/07/06 11:39:21;;;;;;;;;;;;;;;;;;4964962;28;19993;-87
2023/07/06 11:41:47;;;;;;;;;;;;;;;;;;4963183;28;19921;-86
2023/07/06 11:44:13;;;;;;;;;;;;;;;;;;4963890;28;20266;-87
2023/07/06 11:46:42;;;;;;;;;;;;;;;;;;4980409;28;20288;-89
2023/07/06 11:49:09;;;;;;;;;;;;;;;;;;4964199;28;20019;-87
2023/07/06 11:51:36;;;;;;;;;;;;;;;;;;4964332;28;19969;-89
2023/07/06 11:54:05;;;;;;;;;;;;;;;;;;4964738;28;19929;-86
2023/07/06 11:59:25;;;;;;;;;;;;;;;;;;4980539;28;19957;-88
2023/07/06 12:01:57;;;;;;;;;;;;;;;;;;4963948;28;20364;-87
2023/07/06 12:04:23;;;;;;;;;;;;;;;;;;4964733;28;19922;-88
2023/07/06 12:06:50;;;;;;;;;;;;;;;;;;4980246;28;19923;-88
2023/07/06 12:09:17;;;;;;;;;;;;;;;;;;4964841;28;20001;-87
2023/07/06 12:11:43;;;;;;;;;;;;;;;;;;4964008;28;19922;-89
2023/07/06 12:14:09;;;;;;;;;;;;;;;;;;4964777;28;19928;-88
2023/07/06 12:16:35;;;;;;;;;;;;;;;;;;4964975;28;19928;-88
2023/07/06 12:19:03;;;;;;;;;;;;;;;;;;4964711;28;19976;-86
2023/07/06 12:21:29;;;;;;;;;;;;;;;;;;4965412;28;19972;-86
2023/07/06 12:23:55;;;;;;;;;;;;;;;;;;4980598;28;19922;-87
2023/07/06 12:26:24;;;;;;;;;;;;;;;;;;4997417;28;19925;-87
2023/07/06 12:28:50;;;;;;;;;;;;;;;;;;4979490;28;19984;-87
2023/07/06 12:31:16;;;;;;;;;;;;;;;;;;4963432;28;19961;-87
2023/07/06 12:33:42;;;;;;;;;;;;;;;;;;4979761;28;19925;-88
2023/07/06 12:36:08;;;;;;;;;;;;;;;;;;4963266;28;19976;-86
2023/07/06 12:38:35;;;;;;;;;;;;;;;;;;4963348;28;19922;-86
2023/07/06 12:41:09;;;;;;;;;;;;;;;;;;4979382;28;19926;-87
2023/07/06 12:43:35;;;;;;;;;;;;;;;;;;4982419;28;20431;-87
2023/07/06 12:46:03;;;;;;;;;;;;;;;;;;4982530;28;19929;-88
2023/07/06 12:48:29;;;;;;;;;;;;;;;;;;4982582;28;19921;-87
2023/07/06 12:50:55;;;;;;;;;;;;;;;;;;4982277;28;19926;-87
2023/07/06 12:53:22;;;;;;;;;;;;;;;;;;4983238;28;20009;-89
2023/07/06 12:55:49;;;;;;;;;;;;;;;;;;4982772;28;20380;-86
2023/07/06 12:58:15;;;;;;;;;;;;;;;;;;4983082;28;19925;-85
2023/07/06 13:00:44;;;;;;;;;;;;;;;;;;4981742;28;19972;-87
2023/07/06 13:03:12;;;;;;;;;;;;;;;;;;4982601;28;19928;-86
2023/07/06 13:05:38;;;;;;;;;;;;;;;;;;4982348;28;19932;-87
2023/07/06 13:08:09;;;;;;;;;;;;;;;;;;4998684;28;20012;-87
2023/07/06 13:10:39;;;;;;;;;;;;;;;;;;4981722;28;19922;-86
2023/07/06 13:13:04;;;;;;;;;;;;;;;;;;4982560;28;19921;-87
2023/07/06 13:15:30;;;;;;;;;;;;;;;;;;4998432;28;19979;-86
2023/07/06 13:17:58;;;;;;;;;;;;;;;;;;4982705;28;19936;-88
2023/07/06 13:20:24;;;;;;;;;;;;;;;;;;4997874;28;19921;-87
2023/07/06 13:22:50;;;;;;;;;;;;;;;;;;4981771;28;19946;-87
2023/07/06 13:25:17;;;;;;;;;;;;;;;;;;4998514;28;20311;-87
2023/07/06 13:27:45;;;;;;;;;;;;;;;;;;4982362;28;19921;-87
2023/07/06 13:30:11;;;;;;;;;;;;;;;;;;4997880;28;20012;-88
2023/07/06 13:32:37;;;;;;;;;;;;;;;;;;4982415;28;19921;-88
2023/07/06 13:35:03;;;;;;;;;;;;;;;;;;4981483;28;19921;-88
2023/07/06 13:37:30;;;;;;;;;;;;;;;;;;4982820;28;20390;-88
2023/07/06 13:39:59;;;;;;;;;;;;;;;;;;4998388;28;19925;-87
2023/07/06 13:42:25;;;;;;;;;;;;;;;;;;4982591;28;19971;-86
2023/07/06 13:44:51;;;;;;;;;;;;;;;;;;4981982;28;20346;-88
2023/07/06 13:47:21;;;;;;;;;;;;;;;;;;4982349;28;19975;-85
2023/07/06 13:49:47;;;;;;;;;;;;;;;;;;4982411;28;19980;-87
2023/07/06 13:52:13;;;;;;;;;;;;;;;;;;4988699;28;19929;-88
2023/07/06 13:54:39;;;;;;;;;;;;;;;;;;4962929;28;19928;-87
2023/07/06 13:57:05;;;;;;;;;;;;;;;;;;4962258;28;19921;-86
2023/07/06 13:59:37;;;;;;;;;;;;;;;;;;4962120;28;19961;-86
2023/07/06 14:02:03;;;;;;;;;;;;;;;;;;4962848;28;19929;-88
2023/07/06 14:04:29;;;;;;;;;;;;;;;;;;4964590;28;20269;-87
2023/07/06 14:06:55;;;;;;;;;;;;;;;;;;4981809;28;20000;-88
2023/07/06 14:09:21;;;;;;;;;;;;;;;;;;4981462;28;19931;-87
2023/07/06 14:11:47;;;;;;;;;;;;;;;;;;4981061;28;20384;-87
2023/07/06 14:14:13;;;;;;;;;;;;;;;;;;4996613;28;19925;-86
2023/07/06 14:16:39;;;;;;;;;;;;;;;;;;4997303;28;19961;-87
2023/07/06 14:19:06;;;;;;;;;;;;;;;;;;4980882;28;19944;-87
2023/07/06 14:21:35;;;;;;;;;;;;;;;;;;4996979;28;19921;-87
2023/07/06 14:24:01;;;;;;;;;;;;;;;;;;4997906;28;20023;-87
2023/07/06 14:26:27;;;;;;;;;;;;;;;;;;4982177;28;19926;-88
2023/07/06 14:28:54;;;;;;;;;;;;;;;;;;4982222;28;20365;-86
2023/07/06 14:31:20;;;;;;;;;;;;;;;;;;4982056;28;19921;-88
2023/07/06 14:33:46;;;;;;;;;;;;;;;;;;4997745;28;19925;-87
2023/07/06 14:36:12;;;;;;;;;;;;;;;;;;4981416;28;19922;-87
2023/07/06 14:38:38;;;;;;;;;;;;;;;;;;4981814;28;19921;-87
2023/07/06 14:41:06;;;;;;;;;;;;;;;;;;4981674;28;19921;-88
2023/07/06 14:43:32;;;;;;;;;;;;;;;;;;4982476;28;20015;-87
2023/07/06 14:45:58;;;;;;;;;;;;;;;;;;4997555;28;20028;-87
2023/07/06 14:48:23;;;;;;;;;;;;;;;;;;4981398;28;19922;-86
2023/07/06 14:50:51;;;;;;;;;;;;;;;;;;4980945;28;20292;-88
2023/07/06 14:53:17;;;;;;;;;;;;;;;;;;4997481;28;19921;-87
2023/07/06 14:55:42;;;;;;;;;;;;;;;;;;4980379;28;19928;-87
2023/07/06 14:58:16;;;;;;;;;;;;;;;;;;4980532;28;19945;-87
2023/07/06 15:00:42;;;;;;;;;;;;;;;;;;4981430;28;19932;-87
2023/07/06 15:03:08;;;;;;;;;;;;;;;;;;4981037;28;19921;-87
2023/07/06 15:05:33;;;;;;;;;;;;;;;;;;4981127;28;19972;-87
2023/07/06 15:07:59;;;;;;;;;;;;;;;;;;4981637;28;19922;-87
2023/07/06 15:10:25;;;;;;;;;;;;;;;;;;4981177;28;19922;-86
2023/07/06 15:12:51;;;;;;;;;;;;;;;;;;4998227;28;19932;-87
2023/07/06 15:15:17;;;;;;;;;;;;;;;;;;4997696;28;19922;-88
2023/07/06 15:17:43;;;;;;;;;;;;;;;;;;5001569;28;19928;-86
2023/07/06 15:20:10;;;;;;;;;;;;;;;;;;4985381;28;19922;-87
2023/07/06 15:22:36;;;;;;;;;;;;;;;;;;4987737;28;19952;-86
2023/07/06 15:25:02;;;;;;;;;;;;;;;;;;4985689;28;19929;-87
2023/07/06 15:27:28;;;;;;;;;;;;;;;;;;4985667;28;19944;-87
2023/07/06 15:29:54;;;;;;;;;;;;;;;;;;4985010;28;20011;-86
2023/07/06 15:32:24;;;;;;;;;;;;;;;;;;5001352;28;19922;-88
2023/07/06 15:34:50;;;;;;;;;;;;;;;;;;5001978;28;19921;-87
2023/07/06 15:37:16;;;;;;;;;;;;;;;;;;4984871;28;19928;-87
2023/07/06 15:39:42;;;;;;;;;;;;;;;;;;4984951;28;19926;-88
2023/07/06 15:42:08;;;;;;;;;;;;;;;;;;4985186;28;20304;-87
2023/07/06 15:44:34;;;;;;;;;;;;;;;;;;4985495;28;19928;-88
2023/07/06 15:47:00;;;;;;;;;;;;;;;;;;4985118;28;19928;-86
2023/07/06 15:49:25;;;;;;;;;;;;;;;;;;4984969;28;20012;-87
2023/07/06 15:51:52;;;;;;;;;;;;;;;;;;5000681;28;20377;-87
2023/07/06 15:54:18;;;;;;;;;;;;;;;;;;5000882;28;19994;-86
2023/07/06 15:56:44;;;;;;;;;;;;;;;;;;4985011;28;19932;-86
2023/07/06 15:59:10;;;;;;;;;;;;;;;;;;4984631;28;19921;-86
2023/07/06 16:01:36;;;;;;;;;;;;;;;;;;4984451;28;20619;-88
2023/07/06 16:04:02;;;;;;;;;;;;;;;;;;4983986;28;19921;-87
2023/07/06 16:06:28;;;;;;;;;;;;;;;;;;4970996;28;20297;-87
2023/07/06 16:08:54;;;;;;;;;;;;;;;;;;4981704;28;19922;-87
2023/07/06 16:11:20;;;;;;;;;;;;;;;;;;4965043;28;19929;-87
2023/07/06 16:13:46;;;;;;;;;;;;;;;;;;4965077;28;20265;-87
2023/07/06 16:16:12;;;;;;;;;;;;;;;;;;4965202;28;19945;-87
2023/07/06 16:18:38;;;;;;;;;;;;;;;;;;4974406;28;19921;-86
2023/07/06 16:21:05;;;;;;;;;;;;;;;;;;4984179;28;20450;-86
2023/07/06 16:23:31;;;;;;;;;;;;;;;;;;4983735;28;19925;-86
2023/07/06 16:25:57;;;;;;;;;;;;;;;;;;4984167;28;19995;-87
2023/07/06 16:28:23;;;;;;;;;;;;;;;;;;5000501;28;19922;-86
2023/07/06 16:30:49;;;;;;;;;;;;;;;;;;4999946;28;19926;-88
2023/07/06 16:33:16;;;;;;;;;;;;;;;;;;5000142;28;19964;-86
2023/07/06 16:35:43;;;;;;;;;;;;;;;;;;5000238;28;20446;-86
2023/07/06 16:38:09;;;;;;;;;;;;;;;;;;4984677;28;19960;-87
2023/07/06 16:40:35;;;;;;;;;;;;;;;;;;4983775;28;20287;-87
2023/07/06 16:43:01;;;;;;;;;;;;;;;;;;4983759;28;20139;-87
2023/07/06 16:45:27;;;;;;;;;;;;;;;;;;4983249;28;20391;-87
2023/07/06 16:47:53;;;;;;;;;;;;;;;;;;4983849;28;19968;-88
2023/07/06 16:50:19;;;;;;;;;;;;;;;;;;4983926;28;19921;-88